createdAt,value
2024-04-22T00:00:35.757Z,611.00
2024-04-22T00:01:35.960Z,608.00
2024-04-22T00:02:35.926Z,608.00
2024-04-22T00:03:35.992Z,607.00
2024-04-22T00:04:35.997Z,609.00
2024-04-22T00:05:35.923Z,609.00
2024-04-22T00:06:36.101Z,609.00
2024-04-22T00:07:36.062Z,607.00
2024-04-22T00:08:36.123Z,610.00
2024-04-22T00:09:36.136Z,610.00
2024-04-22T00:10:36.251Z,613.00
2024-04-22T00:11:36.322Z,609.00
2024-04-22T00:12:36.250Z,612.00
2024-04-22T00:13:36.411Z,612.00
2024-04-22T00:14:36.292Z,607.00
2024-04-22T00:15:36.408Z,609.00
2024-04-22T00:16:36.519Z,606.00
2024-04-22T00:17:36.551Z,610.00
2024-04-22T00:18:36.504Z,608.00
2024-04-22T00:19:36.657Z,609.00
2024-04-22T00:20:36.576Z,611.00
2024-04-22T00:21:37.136Z,605.00
2024-04-22T00:22:36.765Z,611.00
2024-04-22T00:23:36.676Z,612.00
2024-04-22T00:24:36.678Z,614.00
2024-04-22T00:25:36.878Z,612.00
2024-04-22T00:26:37.085Z,611.00
2024-04-22T00:27:36.810Z,609.00
2024-04-22T00:28:37.136Z,610.00
2024-04-22T00:29:36.895Z,612.00
2024-04-22T00:30:36.882Z,607.00
2024-04-22T00:31:37.168Z,611.00
2024-04-22T00:32:37.009Z,610.00
2024-04-22T00:33:37.112Z,609.00
2024-04-22T00:34:37.082Z,610.00
2024-04-22T00:35:37.069Z,607.00
2024-04-22T00:36:37.074Z,610.00
2024-04-22T00:37:37.196Z,608.00
2024-04-22T00:38:37.112Z,610.00
2024-04-22T00:39:37.145Z,606.00
2024-04-22T00:40:37.321Z,613.00
2024-04-22T00:41:37.191Z,612.00
2024-04-22T00:42:37.205Z,614.00
2024-04-22T00:43:37.388Z,611.00
2024-04-22T00:44:37.281Z,607.00
2024-04-22T00:45:37.298Z,613.00
2024-04-22T00:46:37.367Z,608.00
2024-04-22T00:47:37.478Z,609.00
2024-04-22T00:48:37.444Z,612.00
2024-04-22T00:49:37.479Z,610.00
2024-04-22T00:50:37.447Z,611.00
2024-04-22T00:51:37.471Z,608.00
2024-04-22T00:52:37.725Z,609.00
2024-04-22T00:53:37.544Z,607.00
2024-04-22T00:54:37.560Z,609.00
2024-04-22T00:55:37.665Z,606.00
2024-04-22T00:56:37.665Z,608.00
2024-04-22T00:57:37.657Z,608.00
2024-04-22T00:58:37.810Z,608.00
2024-04-22T00:59:37.754Z,609.00
2024-04-22T01:00:37.771Z,609.00
2024-04-22T01:01:37.845Z,610.00
2024-04-22T01:02:37.888Z,606.00
2024-04-22T01:03:37.923Z,612.00
2024-04-22T01:04:38.054Z,607.00
2024-04-22T01:05:37.996Z,608.00
2024-04-22T01:06:38.049Z,609.00
2024-04-22T01:07:38.151Z,611.00
2024-04-22T01:08:38.084Z,614.00
2024-04-22T01:09:38.126Z,611.00
2024-04-22T01:10:38.323Z,610.00
2024-04-22T01:11:38.260Z,609.00
2024-04-22T01:12:38.249Z,611.00
2024-04-22T01:13:38.374Z,607.00
2024-04-22T01:14:38.322Z,608.00
2024-04-22T01:15:38.317Z,611.00
2024-04-22T01:16:38.431Z,611.00
2024-04-22T01:17:38.538Z,611.00
2024-04-22T01:18:38.531Z,611.00
2024-04-22T01:19:38.536Z,608.00
2024-04-22T01:20:38.516Z,606.00
2024-04-22T01:21:38.602Z,610.00
2024-04-22T01:22:38.764Z,609.00
2024-04-22T01:23:38.668Z,608.00
2024-04-22T01:24:38.704Z,607.00
2024-04-22T01:25:38.829Z,608.00
2024-04-22T01:26:38.758Z,611.00
2024-04-22T01:27:38.744Z,609.00
2024-04-22T01:28:38.869Z,608.00
2024-04-22T01:29:38.819Z,607.00
2024-04-22T01:30:38.840Z,608.00
2024-04-22T01:31:39.167Z,607.00
2024-04-22T01:32:38.982Z,610.00
2024-04-22T01:33:38.970Z,608.00
2024-04-22T01:34:39.029Z,609.00
2024-04-22T01:35:39.021Z,608.00
2024-04-22T01:36:39.123Z,611.00
2024-04-22T01:37:39.145Z,603.00
2024-04-22T01:38:39.128Z,606.00
2024-04-22T01:39:39.220Z,608.00
2024-04-22T01:40:39.291Z,613.00
2024-04-22T01:41:39.594Z,613.00
2024-04-22T01:42:39.297Z,606.00
2024-04-22T01:43:39.458Z,613.00
2024-04-22T01:44:39.353Z,612.00
2024-04-22T01:45:39.394Z,613.00
2024-04-22T01:46:39.721Z,611.00
2024-04-22T01:47:39.504Z,613.00
2024-04-22T01:48:39.464Z,609.00
2024-04-22T01:49:39.615Z,612.00
2024-04-22T01:50:39.534Z,613.00
2024-04-22T01:51:39.636Z,615.00
2024-04-22T01:52:39.777Z,610.00
2024-04-22T01:53:39.730Z,613.00
2024-04-22T01:54:39.779Z,612.00
2024-04-22T01:55:39.922Z,605.00
2024-04-22T01:56:39.862Z,612.00
2024-04-22T01:57:39.984Z,612.00
2024-04-22T01:58:40.056Z,611.00
2024-04-22T01:59:40.006Z,608.00
2024-04-22T02:00:40.027Z,607.00
2024-04-22T02:01:40.098Z,612.00
2024-04-22T02:02:40.109Z,605.00
2024-04-22T02:03:40.153Z,613.00
2024-04-22T02:04:40.189Z,607.00
2024-04-22T02:05:40.217Z,609.00
2024-04-22T02:06:40.244Z,613.00
2024-04-22T02:07:40.300Z,610.00
2024-04-22T02:08:40.329Z,606.00
2024-04-22T02:09:40.369Z,606.00
2024-04-22T02:10:40.492Z,609.00
2024-04-22T02:11:40.638Z,612.00
2024-04-22T02:12:40.458Z,607.00
2024-04-22T02:13:40.567Z,605.00
2024-04-22T02:14:40.532Z,611.00
2024-04-22T02:15:40.562Z,614.00
2024-04-22T02:16:40.647Z,611.00
2024-04-22T02:17:40.786Z,608.00
2024-04-22T02:18:40.658Z,610.00
2024-04-22T02:19:40.804Z,614.00
2024-04-22T02:20:40.805Z,611.00
2024-04-22T02:21:41.122Z,614.00
2024-04-22T02:22:40.964Z,606.00
2024-04-22T02:23:40.900Z,610.00
2024-04-22T02:24:40.854Z,610.00
2024-04-22T02:25:41.014Z,611.00
2024-04-22T02:26:41.158Z,607.00
2024-04-22T02:27:40.995Z,610.00
2024-04-22T02:28:41.145Z,606.00
2024-04-22T02:29:41.038Z,611.00
2024-04-22T02:30:41.083Z,612.00
2024-04-22T02:31:41.257Z,611.00
2024-04-22T02:32:42.165Z,610.00
2024-04-22T02:33:41.236Z,611.00
2024-04-22T02:34:41.236Z,607.00
2024-04-22T02:35:41.254Z,611.00
2024-04-22T02:36:41.303Z,611.00
2024-04-22T02:37:41.394Z,609.00
2024-04-22T02:38:41.384Z,611.00
2024-04-22T02:39:41.414Z,613.00
2024-04-22T02:40:43.536Z,614.00
2024-04-22T02:41:41.598Z,612.00
2024-04-22T02:42:41.660Z,610.00
2024-04-22T02:43:41.618Z,608.00
2024-04-22T02:44:41.642Z,612.00
2024-04-22T02:45:41.681Z,609.00
2024-04-22T02:46:41.783Z,611.00
2024-04-22T02:47:41.846Z,609.00
2024-04-22T02:48:41.788Z,609.00
2024-04-22T02:49:41.856Z,610.00
2024-04-22T02:50:41.868Z,609.00
2024-04-22T02:51:41.950Z,609.00
2024-04-22T02:52:41.979Z,605.00
2024-04-22T02:53:42.009Z,612.00
2024-04-22T02:54:42.033Z,609.00
2024-04-22T02:55:42.124Z,603.00
2024-04-22T02:56:42.144Z,607.00
2024-04-22T02:57:42.220Z,606.00
2024-04-22T02:58:44.160Z,611.00
2024-04-22T02:59:42.266Z,607.00
2024-04-22T03:00:42.316Z,612.00
2024-04-22T03:01:42.664Z,609.00
2024-04-22T03:02:42.378Z,611.00
2024-04-22T03:03:42.442Z,609.00
2024-04-22T03:04:42.479Z,607.00
2024-04-22T03:05:42.479Z,613.00
2024-04-22T03:06:42.553Z,609.00
2024-04-22T03:07:42.578Z,607.00
2024-04-22T03:08:42.607Z,613.00
2024-04-22T03:09:42.668Z,610.00
2024-04-22T03:10:42.727Z,610.00
2024-04-22T03:11:42.821Z,607.00
2024-04-22T03:12:42.801Z,610.00
2024-04-22T03:13:42.857Z,606.00
2024-04-22T03:14:42.842Z,612.00
2024-04-22T03:15:42.872Z,610.00
2024-04-22T03:16:43.005Z,613.00
2024-04-22T03:17:42.995Z,605.00
2024-04-22T03:18:43.005Z,606.00
2024-04-22T03:19:43.097Z,609.00
2024-04-22T03:20:43.083Z,608.00
2024-04-22T03:21:43.119Z,610.00
2024-04-22T03:22:43.190Z,610.00
2024-04-22T03:23:43.181Z,609.00
2024-04-22T03:24:43.231Z,609.00
2024-04-22T03:25:43.351Z,606.00
2024-04-22T03:26:43.641Z,610.00
2024-04-22T03:27:43.354Z,604.00
2024-04-22T03:28:43.440Z,610.00
2024-04-22T03:29:43.629Z,610.00
2024-04-22T03:30:43.466Z,610.00
2024-04-22T03:31:43.760Z,608.00
2024-04-22T03:32:43.650Z,605.00
2024-04-22T03:33:43.590Z,607.00
2024-04-22T03:34:43.675Z,609.00
2024-04-22T03:35:43.706Z,607.00
2024-04-22T03:36:43.722Z,604.00
2024-04-22T03:37:43.815Z,613.00
2024-04-22T03:38:43.794Z,611.00
2024-04-22T03:39:43.829Z,610.00
2024-04-22T03:40:43.943Z,610.00
2024-04-22T03:41:43.948Z,608.00
2024-04-22T03:42:43.993Z,613.00
2024-04-22T03:43:44.109Z,610.00
2024-04-22T03:44:44.077Z,611.00
2024-04-22T03:45:44.100Z,608.00
2024-04-22T03:46:44.679Z,607.00
2024-04-22T03:47:44.298Z,604.00
2024-04-22T03:48:44.439Z,607.00
2024-04-22T03:49:44.385Z,611.00
2024-04-22T03:50:44.362Z,608.00
2024-04-22T03:51:44.657Z,610.00
2024-04-22T03:52:44.504Z,609.00
2024-04-22T03:53:44.474Z,611.00
2024-04-22T03:54:44.523Z,611.00
2024-04-22T03:55:44.608Z,609.00
2024-04-22T03:56:44.606Z,607.00
2024-04-22T03:57:44.836Z,610.00
2024-04-22T03:58:44.725Z,611.00
2024-04-22T03:59:44.714Z,609.00
2024-04-22T04:00:44.808Z,608.00
2024-04-22T04:01:44.809Z,607.00
2024-04-22T04:02:44.832Z,609.00
2024-04-22T04:03:45.008Z,611.00
2024-04-22T04:04:45.052Z,609.00
2024-04-22T04:05:45.152Z,608.00
2024-04-22T04:06:45.183Z,611.00
2024-04-22T04:07:45.126Z,606.00
2024-04-22T04:08:45.141Z,609.00
2024-04-22T04:09:45.189Z,606.00
2024-04-22T04:10:45.351Z,611.00
2024-04-22T04:11:45.376Z,606.00
2024-04-22T04:12:45.353Z,613.00
2024-04-22T04:13:45.400Z,610.00
2024-04-22T04:14:45.423Z,610.00
2024-04-22T04:15:45.479Z,609.00
2024-04-22T04:16:45.856Z,607.00
2024-04-22T04:17:45.636Z,610.00
2024-04-22T04:18:45.659Z,611.00
2024-04-22T04:19:45.718Z,612.00
2024-04-22T04:20:45.709Z,611.00
2024-04-22T04:21:45.895Z,607.00
2024-04-22T04:22:45.807Z,612.00
2024-04-22T04:23:45.877Z,613.00
2024-04-22T04:24:45.955Z,608.00
2024-04-22T04:25:46.108Z,601.00
2024-04-22T04:26:46.181Z,612.00
2024-04-22T04:27:46.068Z,607.00
2024-04-22T04:28:48.914Z,610.00
2024-04-22T04:29:56.613Z,600.00
2024-04-22T04:30:56.602Z,600.00
2024-04-22T04:32:04.113Z,600.00
2024-04-22T04:33:04.120Z,600.00
2024-04-22T04:34:04.138Z,600.00
2024-04-22T04:35:07.643Z,600.00
2024-04-22T04:36:04.164Z,600.00
2024-04-22T04:37:04.449Z,600.00
2024-04-22T04:38:04.113Z,600.00
2024-04-22T04:39:04.089Z,600.00
2024-04-22T04:40:04.095Z,600.00
2024-04-22T04:41:04.090Z,600.00
2024-04-22T04:42:04.451Z,600.00
2024-04-22T04:43:04.057Z,600.00
2024-04-22T04:44:04.017Z,602.00
2024-04-22T04:45:03.999Z,605.00
2024-04-22T04:46:03.989Z,606.00
2024-04-22T04:47:04.014Z,607.00
2024-04-22T04:48:04.079Z,606.00
2024-04-22T04:49:03.938Z,609.00
2024-04-22T04:50:03.961Z,607.00
2024-04-22T04:51:03.945Z,601.00
2024-04-22T04:52:03.964Z,608.00
2024-04-22T04:53:03.908Z,605.00
2024-04-22T04:54:03.879Z,605.00
2024-04-22T04:55:03.880Z,604.00
2024-04-22T04:56:03.839Z,606.00
2024-04-22T04:57:03.939Z,604.00
2024-04-22T04:58:03.784Z,605.00
2024-04-22T04:59:03.762Z,606.00
2024-04-22T05:00:03.798Z,609.00
2024-04-22T05:01:03.924Z,607.00
2024-04-22T05:02:03.997Z,610.00
2024-04-22T05:03:03.953Z,609.00
2024-04-22T05:04:03.948Z,607.00
2024-04-22T05:05:03.984Z,608.00
2024-04-22T05:06:04.022Z,608.00
2024-04-22T05:07:04.482Z,609.00
2024-04-22T05:08:04.065Z,605.00
2024-04-22T05:09:04.107Z,611.00
2024-04-22T05:10:04.136Z,603.00
2024-04-22T05:11:04.195Z,606.00
2024-04-22T05:12:04.453Z,608.00
2024-04-22T05:13:04.218Z,607.00
2024-04-22T05:14:04.283Z,606.00
2024-04-22T05:15:04.311Z,605.00
2024-04-22T05:16:04.399Z,607.00
2024-04-22T05:17:04.380Z,612.00
2024-04-22T05:18:04.424Z,610.00
2024-04-22T05:19:04.445Z,610.00
2024-04-22T05:20:04.510Z,607.00
2024-04-22T05:21:04.522Z,608.00
2024-04-22T05:22:04.977Z,610.00
2024-04-22T05:23:04.669Z,610.00
2024-04-22T05:24:04.629Z,613.00
2024-04-22T05:25:04.699Z,612.00
2024-04-22T05:26:04.750Z,613.00
2024-04-22T05:27:04.984Z,607.00
2024-04-22T05:28:04.762Z,610.00
2024-04-22T05:29:04.825Z,607.00
2024-04-22T05:30:04.834Z,610.00
2024-04-22T05:31:04.882Z,608.00
2024-04-22T05:32:04.954Z,609.00
2024-04-22T05:33:05.039Z,608.00
2024-04-22T05:34:05.036Z,609.00
2024-04-22T05:35:05.065Z,610.00
2024-04-22T05:36:05.125Z,611.00
2024-04-22T05:37:05.548Z,613.00
2024-04-22T05:38:05.242Z,614.00
2024-04-22T05:39:05.198Z,614.00
2024-04-22T05:40:05.291Z,611.00
2024-04-22T05:41:05.307Z,609.00
2024-04-22T05:42:05.478Z,609.00
2024-04-22T05:43:05.385Z,607.00
2024-04-22T05:44:05.446Z,612.00
2024-04-22T05:45:05.457Z,612.00
2024-04-22T05:46:06.961Z,610.00
2024-04-22T05:47:05.967Z,610.00
2024-04-22T05:48:05.644Z,609.00
2024-04-22T05:49:05.627Z,604.00
2024-04-22T05:50:05.649Z,608.00
2024-04-22T05:51:05.669Z,607.00
2024-04-22T05:52:06.018Z,608.00
2024-04-22T05:53:05.742Z,607.00
2024-04-22T05:54:05.784Z,610.00
2024-04-22T05:55:05.819Z,607.00
2024-04-22T05:56:05.892Z,608.00
2024-04-22T05:57:05.991Z,612.00
2024-04-22T05:58:05.903Z,609.00
2024-04-22T05:59:06.171Z,611.00
2024-04-22T06:00:05.965Z,608.00
2024-04-22T06:01:06.134Z,602.00
2024-04-22T06:02:06.507Z,608.00
2024-04-22T06:03:06.153Z,606.00
2024-04-22T06:04:06.157Z,607.00
2024-04-22T06:05:06.209Z,610.00
2024-04-22T06:06:06.199Z,607.00
2024-04-22T06:07:06.218Z,609.00
2024-04-22T06:08:06.299Z,607.00
2024-04-22T06:09:06.310Z,606.00
2024-04-22T06:10:06.327Z,605.00
2024-04-22T06:11:06.457Z,609.00
2024-04-22T06:12:14.919Z,608.00
2024-04-22T06:13:07.410Z,608.00
2024-04-22T06:14:06.363Z,608.00
2024-04-22T06:15:07.368Z,608.00
2024-04-22T06:16:06.355Z,608.00
2024-04-22T06:17:06.341Z,607.00
2024-04-22T06:18:06.374Z,611.00
2024-04-22T06:19:06.284Z,610.00
2024-04-22T06:20:06.302Z,613.00
2024-04-22T06:21:06.267Z,614.00
2024-04-22T06:22:06.253Z,612.00
2024-04-22T06:23:06.252Z,614.00
2024-04-22T06:24:06.233Z,613.00
2024-04-22T06:25:06.243Z,616.00
2024-04-22T06:26:06.258Z,613.00
2024-04-22T06:27:06.495Z,614.00
2024-04-22T06:28:06.356Z,617.00
2024-04-22T06:29:06.385Z,613.00
2024-04-22T06:30:06.545Z,611.00
2024-04-22T06:31:08.422Z,614.00
2024-04-22T06:32:06.614Z,615.00
2024-04-22T06:33:06.478Z,619.00
2024-04-22T06:34:06.438Z,616.00
2024-04-22T06:35:06.451Z,620.00
2024-04-22T06:36:06.410Z,615.00
2024-04-22T06:37:06.484Z,617.00
2024-04-22T06:38:09.122Z,617.00
2024-04-22T06:39:06.374Z,615.00
2024-04-22T06:40:06.332Z,618.00
2024-04-22T06:41:06.337Z,618.00
2024-04-22T06:42:06.314Z,618.00
2024-04-22T06:43:06.313Z,619.00
2024-04-22T06:44:06.364Z,617.00
2024-04-22T06:45:06.320Z,618.00
2024-04-22T06:46:06.321Z,623.00
2024-04-22T06:47:06.354Z,619.00
2024-04-22T06:48:06.294Z,619.00
2024-04-22T06:49:06.271Z,621.00
2024-04-22T06:50:06.247Z,621.00
2024-04-22T06:51:06.246Z,620.00
2024-04-22T06:52:06.210Z,624.00
2024-04-22T06:53:06.174Z,620.00
2024-04-22T06:54:06.229Z,619.00
2024-04-22T06:55:06.156Z,623.00
2024-04-22T06:56:06.155Z,623.00
2024-04-22T06:57:06.272Z,620.00
2024-04-22T06:58:06.214Z,624.00
2024-04-22T06:59:06.165Z,622.00
2024-04-22T07:00:06.176Z,624.00
2024-04-22T07:01:06.237Z,623.00
2024-04-22T07:02:10.052Z,623.00
2024-04-22T07:03:07.257Z,623.00
2024-04-22T07:04:06.357Z,624.00
2024-04-22T07:05:06.254Z,624.00
2024-04-22T07:06:06.171Z,624.00
2024-04-22T07:07:06.077Z,623.00
2024-04-22T07:08:06.082Z,624.00
2024-04-22T07:09:06.076Z,626.00
2024-04-22T07:10:06.057Z,619.00
2024-04-22T07:11:06.048Z,623.00
2024-04-22T07:12:06.522Z,628.00
2024-04-22T07:13:06.072Z,622.00
2024-04-22T07:14:06.188Z,625.00
2024-04-22T07:15:06.212Z,627.00
2024-04-22T07:16:06.341Z,626.00
2024-04-22T07:17:06.255Z,626.00
2024-04-22T07:18:06.363Z,628.00
2024-04-22T07:19:06.340Z,626.00
2024-04-22T07:20:06.404Z,628.00
2024-04-22T07:21:06.433Z,633.00
2024-04-22T07:22:06.471Z,631.00
2024-04-22T07:23:06.489Z,636.00
2024-04-22T07:24:06.520Z,635.00
2024-04-22T07:25:06.563Z,635.00
2024-04-22T07:26:06.608Z,637.00
2024-04-22T07:27:11.022Z,636.00
2024-04-22T07:28:07.600Z,636.00
2024-04-22T07:29:06.596Z,637.00
2024-04-22T07:30:06.578Z,639.00
2024-04-22T07:31:06.543Z,643.00
2024-04-22T07:32:06.535Z,648.00
2024-04-22T07:33:06.598Z,650.00
2024-04-22T07:34:06.510Z,650.00
2024-04-22T07:35:06.517Z,655.00
2024-04-22T07:36:06.451Z,653.00
2024-04-22T07:37:06.523Z,653.00
2024-04-22T07:38:06.570Z,657.00
2024-04-22T07:39:06.486Z,659.00
2024-04-22T07:40:06.559Z,661.00
2024-04-22T07:41:06.521Z,664.00
2024-04-22T07:42:06.998Z,661.00
2024-04-22T07:43:06.591Z,666.00
2024-04-22T07:44:06.615Z,674.00
2024-04-22T07:45:06.620Z,667.00
2024-04-22T07:46:06.647Z,679.00
2024-04-22T07:47:07.035Z,684.00
2024-04-22T07:48:06.725Z,688.00
2024-04-22T07:49:06.755Z,699.00
2024-04-22T07:50:06.760Z,689.00
2024-04-22T07:51:06.808Z,698.00
2024-04-22T07:52:07.041Z,705.00
2024-04-22T07:53:06.874Z,703.00
2024-04-22T07:54:06.844Z,711.00
2024-04-22T07:55:06.864Z,724.00
2024-04-22T07:56:06.897Z,711.00
2024-04-22T07:57:07.026Z,714.00
2024-04-22T07:58:06.890Z,724.00
2024-04-22T07:59:06.887Z,730.00
2024-04-22T08:00:06.927Z,732.00
2024-04-22T08:01:06.889Z,743.00
2024-04-22T08:02:06.852Z,750.00
2024-04-22T08:03:06.875Z,750.00
2024-04-22T08:04:07.152Z,751.00
2024-04-22T08:05:06.819Z,759.00
2024-04-22T08:06:06.870Z,759.00
2024-04-22T08:07:06.864Z,753.00
2024-04-22T08:08:06.779Z,777.00
2024-04-22T08:09:06.741Z,785.00
2024-04-22T08:10:06.929Z,786.00
2024-04-22T08:11:06.828Z,779.00
2024-04-22T08:12:06.783Z,792.00
2024-04-22T08:13:06.837Z,798.00
2024-04-22T08:14:06.828Z,802.00
2024-04-22T08:15:07.504Z,806.00
2024-04-22T08:16:06.922Z,818.00
2024-04-22T08:17:07.137Z,823.00
2024-04-22T08:18:06.918Z,822.00
2024-04-22T08:19:07.047Z,832.00
2024-04-22T08:20:06.871Z,838.00
2024-04-22T08:21:06.927Z,839.00
2024-04-22T08:22:07.010Z,849.00
2024-04-22T08:23:07.526Z,852.00
2024-04-22T08:24:07.064Z,856.00
2024-04-22T08:25:07.049Z,856.00
2024-04-22T08:26:07.103Z,872.00
2024-04-22T08:27:07.551Z,870.00
2024-04-22T08:28:07.173Z,882.00
2024-04-22T08:29:07.228Z,878.00
2024-04-22T08:30:07.292Z,890.00
2024-04-22T08:31:07.278Z,896.00
2024-04-22T08:32:07.307Z,896.00
2024-04-22T08:33:07.453Z,899.00
2024-04-22T08:34:07.363Z,908.00
2024-04-22T08:35:07.372Z,914.00
2024-04-22T08:36:07.389Z,921.00
2024-04-22T08:37:07.540Z,924.00
2024-04-22T08:38:07.467Z,935.00
2024-04-22T08:39:07.453Z,936.00
2024-04-22T08:40:07.529Z,948.00
2024-04-22T08:41:07.555Z,939.00
2024-04-22T08:42:08.015Z,954.00
2024-04-22T08:43:07.594Z,960.00
2024-04-22T08:44:07.601Z,961.00
2024-04-22T08:45:07.560Z,969.00
2024-04-22T08:46:07.596Z,976.00
2024-04-22T08:47:07.687Z,978.00
2024-04-22T08:48:07.690Z,991.00
2024-04-22T08:49:07.658Z,985.00
2024-04-22T08:50:07.662Z,992.00
2024-04-22T08:51:07.715Z,991.00
2024-04-22T08:52:07.882Z,997.00
2024-04-22T08:53:07.853Z,1011.00
2024-04-22T08:54:07.788Z,1006.00
2024-04-22T08:55:07.811Z,1001.00
2024-04-22T08:56:07.866Z,1009.00
2024-04-22T08:57:08.042Z,1013.00
2024-04-22T08:58:07.928Z,1007.00
2024-04-22T08:59:13.727Z,1014.00
2024-04-22T09:00:08.927Z,1014.00
2024-04-22T09:01:07.966Z,1016.00
2024-04-22T09:02:07.944Z,1021.00
2024-04-22T09:03:08.670Z,1030.00
2024-04-22T09:04:08.579Z,1040.00
2024-04-22T09:05:09.210Z,1049.00
2024-04-22T09:06:08.030Z,1066.00
2024-04-22T09:07:07.748Z,1059.00
2024-04-22T09:08:07.820Z,1072.00
2024-04-22T09:09:08.836Z,1079.00
2024-04-22T09:10:34.860Z,1084.00
2024-04-22T09:11:36.383Z,1085.00
2024-04-22T09:12:11.049Z,1086.00
2024-04-22T09:13:08.074Z,1087.00
2024-04-22T09:14:07.734Z,1092.00
2024-04-22T09:15:07.901Z,1107.00
2024-04-22T09:16:07.753Z,1126.00
2024-04-22T09:17:07.583Z,1154.00
2024-04-22T09:18:08.239Z,1162.00
2024-04-22T09:19:07.509Z,1169.00
2024-04-22T09:20:07.432Z,1179.00
2024-04-22T09:21:08.122Z,1191.00
2024-04-22T09:22:07.285Z,1203.00
2024-04-22T09:23:07.438Z,1194.00
2024-04-22T09:24:07.328Z,1207.00
2024-04-22T09:25:07.209Z,1217.00
2024-04-22T09:26:07.444Z,1222.00
2024-04-22T09:27:07.317Z,1226.00
2024-04-22T09:28:07.269Z,1229.00
2024-04-22T09:29:07.150Z,1236.00
2024-04-22T09:30:07.103Z,1237.00
2024-04-22T09:31:07.229Z,1252.00
2024-04-22T09:32:07.258Z,1264.00
2024-04-22T09:33:07.181Z,1274.00
2024-04-22T09:34:07.178Z,1269.00
2024-04-22T09:35:10.633Z,1282.00
2024-04-22T09:36:07.995Z,1283.00
2024-04-22T09:37:06.864Z,1284.00
2024-04-22T09:38:06.893Z,1287.00
2024-04-22T09:39:06.971Z,1290.00
2024-04-22T09:40:06.784Z,1298.00
2024-04-22T09:41:07.439Z,1300.00
2024-04-22T09:42:06.847Z,1315.00
2024-04-22T09:43:07.152Z,1322.00
2024-04-22T09:44:10.601Z,1345.00
2024-04-22T09:45:07.525Z,1346.00
2024-04-22T09:46:06.752Z,1355.00
2024-04-22T09:47:06.690Z,1378.00
2024-04-22T09:48:06.734Z,1415.00
2024-04-22T09:49:06.420Z,1475.00
2024-04-22T09:50:06.539Z,1489.00
2024-04-22T09:51:06.429Z,1462.00
2024-04-22T09:52:06.180Z,1463.00
2024-04-22T09:53:06.766Z,1436.00
2024-04-22T09:54:06.122Z,1436.00
2024-04-22T09:55:06.265Z,1423.00
2024-04-22T09:56:06.178Z,1412.00
2024-04-22T09:57:06.038Z,1391.00
2024-04-22T09:58:06.228Z,1381.00
2024-04-22T09:59:06.305Z,1360.00
2024-04-22T10:00:06.005Z,1333.00
2024-04-22T10:01:05.999Z,1325.00
2024-04-22T10:02:06.884Z,1317.00
2024-04-22T10:03:06.311Z,1292.00
2024-04-22T10:04:06.088Z,1278.00
2024-04-22T10:05:07.181Z,1272.00
2024-04-22T10:06:06.090Z,1254.00
2024-04-22T10:07:06.008Z,1240.00
2024-04-22T10:08:06.251Z,1212.00
2024-04-22T10:09:05.962Z,1196.00
2024-04-22T10:10:05.922Z,1173.00
2024-04-22T10:11:06.065Z,1165.00
2024-04-22T10:12:06.234Z,1167.00
2024-04-22T10:13:05.887Z,1152.00
2024-04-22T10:14:06.315Z,1161.00
2024-04-22T10:15:05.866Z,1186.00
2024-04-22T10:16:05.814Z,1228.00
2024-04-22T10:17:05.921Z,1188.00
2024-04-22T10:18:09.094Z,1192.00
2024-04-22T10:19:06.120Z,1166.00
2024-04-22T10:20:05.894Z,1141.00
2024-04-22T10:21:06.029Z,1097.00
2024-04-22T10:22:05.978Z,1106.00
2024-04-22T10:23:06.337Z,1078.00
2024-04-22T10:24:05.823Z,1095.00
2024-04-22T10:25:05.886Z,1096.00
2024-04-22T10:26:05.786Z,1064.00
2024-04-22T10:27:11.343Z,1045.00
2024-04-22T10:28:06.763Z,1046.00
2024-04-22T10:29:05.771Z,1047.00
2024-04-22T10:30:08.749Z,1050.00
2024-04-22T10:31:05.904Z,1046.00
2024-04-22T10:32:05.830Z,1048.00
2024-04-22T10:33:05.873Z,1050.00
2024-04-22T10:34:05.673Z,1058.00
2024-04-22T10:35:05.750Z,1077.00
2024-04-22T10:36:06.632Z,1047.00
2024-04-22T10:37:05.606Z,1051.00
2024-04-22T10:38:05.616Z,1057.00
2024-04-22T10:39:05.567Z,1073.00
2024-04-22T10:40:05.576Z,1091.00
2024-04-22T10:41:05.573Z,1094.00
2024-04-22T10:42:05.545Z,1095.00
2024-04-22T10:43:05.569Z,1104.00
2024-04-22T10:44:05.414Z,1109.00
2024-04-22T10:45:05.399Z,1121.00
2024-04-22T10:46:05.396Z,1131.00
2024-04-22T10:47:05.358Z,1139.00
2024-04-22T10:48:12.390Z,1148.00
2024-04-22T10:49:06.369Z,1149.00
2024-04-22T10:50:05.274Z,1152.00
2024-04-22T10:51:05.229Z,1151.00
2024-04-22T10:52:05.212Z,1155.00
2024-04-22T10:53:05.986Z,1166.00
2024-04-22T10:54:05.137Z,1176.00
2024-04-22T10:55:05.116Z,1184.00
2024-04-22T10:56:05.103Z,1186.00
2024-04-22T10:57:05.054Z,1173.00
2024-04-22T10:58:05.001Z,1175.00
2024-04-22T10:59:05.017Z,1193.00
2024-04-22T11:00:04.979Z,1200.00
2024-04-22T11:01:05.100Z,1173.00
2024-04-22T11:02:05.352Z,1185.00
2024-04-22T11:03:05.122Z,1186.00
2024-04-22T11:04:05.102Z,1179.00
2024-04-22T11:05:05.195Z,1167.00
2024-04-22T11:06:05.136Z,1174.00
2024-04-22T11:07:05.128Z,1160.00
2024-04-22T11:08:05.623Z,1148.00
2024-04-22T11:09:05.131Z,1160.00
2024-04-22T11:10:05.179Z,1163.00
2024-04-22T11:11:05.200Z,1156.00
2024-04-22T11:12:05.200Z,1154.00
2024-04-22T11:13:05.214Z,1144.00
2024-04-22T11:14:05.212Z,1133.00
2024-04-22T11:15:05.276Z,1137.00
2024-04-22T11:16:05.330Z,1130.00
2024-04-22T11:17:05.383Z,1123.00
2024-04-22T11:18:05.576Z,1123.00
2024-04-22T11:19:07.121Z,1120.00
2024-04-22T11:20:05.441Z,1122.00
2024-04-22T11:21:05.463Z,1115.00
2024-04-22T11:22:05.543Z,1125.00
2024-04-22T11:23:05.602Z,1130.00
2024-04-22T11:24:05.610Z,1128.00
2024-04-22T11:25:06.329Z,1115.00
2024-04-22T11:26:05.661Z,1115.00
2024-04-22T11:27:05.651Z,1122.00
2024-04-22T11:28:05.719Z,1085.00
2024-04-22T11:29:05.704Z,1069.00
2024-04-22T11:30:05.759Z,1081.00
2024-04-22T11:31:05.739Z,1066.00
2024-04-22T11:32:05.809Z,1057.00
2024-04-22T11:33:05.837Z,1023.00
2024-04-22T11:34:05.731Z,1029.00
2024-04-22T11:35:05.694Z,1037.00
2024-04-22T11:36:05.742Z,1054.00
2024-04-22T11:37:05.736Z,1064.00
2024-04-22T11:38:05.743Z,1093.00
2024-04-22T11:39:05.794Z,1103.00
2024-04-22T11:40:05.761Z,1121.00
2024-04-22T11:41:05.813Z,1128.00
2024-04-22T11:42:05.808Z,1131.00
2024-04-22T11:43:06.100Z,1137.00
2024-04-22T11:44:05.819Z,1133.00
2024-04-22T11:45:06.776Z,1149.00
2024-04-22T11:46:05.863Z,1160.00
2024-04-22T11:47:05.994Z,1166.00
2024-04-22T11:48:06.134Z,1171.00
2024-04-22T11:49:05.838Z,1169.00
2024-04-22T11:50:05.824Z,1159.00
2024-04-22T11:51:05.809Z,1156.00
2024-04-22T11:52:05.806Z,1165.00
2024-04-22T11:53:14.586Z,1165.00
2024-04-22T11:54:06.784Z,1166.00
2024-04-22T11:55:05.719Z,1166.00
2024-04-22T11:56:08.645Z,1166.00
2024-04-22T11:57:05.674Z,1172.00
2024-04-22T11:58:05.608Z,1170.00
2024-04-22T11:59:05.555Z,1170.00
2024-04-22T12:00:05.515Z,1161.00
2024-04-22T12:01:05.498Z,1161.00
2024-04-22T12:02:05.480Z,1169.00
2024-04-22T12:03:05.762Z,1169.00
2024-04-22T12:04:05.470Z,1173.00
2024-04-22T12:05:05.389Z,1183.00
2024-04-22T12:06:05.418Z,1170.00
2024-04-22T12:07:05.235Z,1181.00
2024-04-22T12:08:05.216Z,1171.00
2024-04-22T12:09:06.890Z,1175.00
2024-04-22T12:10:05.083Z,1176.00
2024-04-22T12:11:05.092Z,1177.00
2024-04-22T12:12:04.992Z,1178.00
2024-04-22T12:13:05.103Z,1182.00
2024-04-22T12:14:04.958Z,1189.00
2024-04-22T12:15:06.522Z,1192.00
2024-04-22T12:16:04.950Z,1192.00
2024-04-22T12:17:04.848Z,1193.00
2024-04-22T12:18:05.113Z,1191.00
2024-04-22T12:19:04.687Z,1186.00
2024-04-22T12:20:04.616Z,1181.00
2024-04-22T12:21:05.821Z,1199.00
2024-04-22T12:22:04.684Z,1176.00